Time;durP1;ratioP1;P1;durP2;ratioP2;P2;SDS_P1;SDS_P2;PMS_P1;PMS_P2;Temp;Humidity;BMP_temperature;BMP_pressure;BME280_temperature;BME280_humidity;BME280_pressure;Samples;Min_cycle;Max_cycle;Signal;HPM_P1;HPM_P2
2023/06/12 00:00:07;;;;;;;;;;;25.10;45.80;;;;;;5058546;28;19932;-69
2023/06/12 00:02:34;;;;;;;;;;;25.00;45.80;;;;;;5063183;28;19924;-70
2023/06/12 00:05:03;;;;;;;;;;;25.00;46.00;;;;;;5065261;28;19949;-69
2023/06/12 00:07:30;;;;;;;;;;;24.90;46.00;;;;;;5067807;28;19924;-70
2023/06/12 00:09:57;;;;;;;;;;;24.90;46.10;;;;;;5067491;28;19931;-70
2023/06/12 00:12:23;;;;;;;;;;;24.80;46.20;;;;;;5061240;28;20432;-70
2023/06/12 00:14:50;;;;;;;;;;;24.80;46.30;;;;;;5044665;28;20684;-68
2023/06/12 00:17:16;;;;;;;;;;;24.70;46.30;;;;;;5051977;28;19929;-69
2023/06/12 00:19:43;;;;;;;;;;;24.70;46.40;;;;;;5047288;28;19925;-70
2023/06/12 00:22:11;;;;;;;;;;;24.70;46.50;;;;;;5048946;28;20158;-70
2023/06/12 00:24:38;;;;;;;;;;;24.60;46.50;;;;;;5052033;28;19924;-70
2023/06/12 00:27:04;;;;;;;;;;;24.60;46.70;;;;;;5073750;28;20389;-69
2023/06/12 00:29:31;;;;;;;;;;;24.50;46.70;;;;;;5070400;28;19928;-70
2023/06/12 00:31:57;;;;;;;;;;;24.50;46.80;;;;;;5058110;28;20378;-69
2023/06/12 00:34:24;;;;;;;;;;;24.50;46.90;;;;;;5055368;28;19982;-70
2023/06/12 00:36:50;;;;;;;;;;;24.40;47.00;;;;;;5052064;28;19928;-70
2023/06/12 00:39:18;;;;;;;;;;;24.40;47.10;;;;;;5052898;28;20381;-71
2023/06/12 00:41:45;;;;;;;;;;;24.30;47.10;;;;;;5058033;28;19933;-69
2023/06/12 00:44:11;;;;;;;;;;;24.20;47.10;;;;;;5057439;28;19943;-70
2023/06/12 00:46:38;;;;;;;;;;;24.20;47.20;;;;;;5059828;28;20351;-70
2023/06/12 00:49:04;;;;;;;;;;;24.20;47.30;;;;;;5056773;28;19936;-69
2023/06/12 00:51:33;;;;;;;;;;;24.20;47.40;;;;;;5052928;28;20813;-69
2023/06/12 00:54:00;;;;;;;;;;;24.10;47.40;;;;;;5058211;28;20046;-70
2023/06/12 00:56:28;;;;;;;;;;;24.10;47.50;;;;;;5056728;28;20019;-70
2023/06/12 00:58:55;;;;;;;;;;;24.00;47.50;;;;;;5056754;28;19928;-70
2023/06/12 01:01:25;;;;;;;;;;;24.00;47.70;;;;;;5053591;28;19951;-69
2023/06/12 01:03:52;;;;;;;;;;;23.90;47.60;;;;;;5059327;28;19932;-70
2023/06/12 01:06:21;;;;;;;;;;;23.90;47.70;;;;;;5050573;28;19960;-69
2023/06/12 01:08:53;;;;;;;;;;;23.80;47.70;;;;;;5052152;28;19924;-70
2023/06/12 01:11:21;;;;;;;;;;;23.80;47.80;;;;;;5056092;28;19928;-69
2023/06/12 01:13:49;;;;;;;;;;;23.80;47.90;;;;;;5047629;28;19975;-70
2023/06/12 01:16:15;;;;;;;;;;;23.70;48.00;;;;;;5053467;28;19936;-70
2023/06/12 01:18:43;;;;;;;;;;;23.70;48.00;;;;;;5053805;28;19933;-69
2023/06/12 01:21:14;;;;;;;;;;;23.70;48.10;;;;;;5050830;28;19968;-70
2023/06/12 01:23:51;;;;;;;;;;;23.60;48.20;;;;;;5057517;28;19994;-69
2023/06/12 01:26:25;;;;;;;;;;;23.60;48.20;;;;;;5055598;28;19935;-69
2023/06/12 01:29:13;;;;;;;;;;;23.50;48.30;;;;;;5060962;28;19935;-69
2023/06/12 01:31:46;;;;;;;;;;;23.50;48.40;;;;;;5032897;28;19928;-69
2023/06/12 01:34:16;;;;;;;;;;;23.50;48.50;;;;;;5059769;28;19928;-71
2023/06/12 01:36:48;;;;;;;;;;;23.40;48.50;;;;;;5050743;28;20655;-70
2023/06/12 01:39:16;;;;;;;;;;;23.40;48.60;;;;;;5048403;28;19998;-70
2023/06/12 01:41:42;;;;;;;;;;;23.30;48.70;;;;;;5057680;28;19990;-69
2023/06/12 01:44:09;;;;;;;;;;;23.30;48.80;;;;;;5061694;28;20382;-69
2023/06/12 01:46:36;;;;;;;;;;;23.20;48.80;;;;;;5063475;28;19932;-69
2023/06/12 01:49:03;;;;;;;;;;;23.20;48.90;;;;;;5063318;28;19924;-69
2023/06/12 01:51:31;;;;;;;;;;;23.20;48.90;;;;;;5056300;28;19928;-69
2023/06/12 01:53:57;;;;;;;;;;;23.20;49.00;;;;;;5070016;28;19932;-70
2023/06/12 01:56:25;;;;;;;;;;;23.10;49.10;;;;;;5061748;28;19982;-68
2023/06/12 01:58:52;;;;;;;;;;;23.10;49.20;;;;;;5066472;28;19933;-69
2023/06/12 02:01:18;;;;;;;;;;;23.00;49.20;;;;;;5062182;28;19933;-69
2023/06/12 02:03:46;;;;;;;;;;;23.00;49.30;;;;;;5051079;28;20487;-69
2023/06/12 02:06:13;;;;;;;;;;;23.00;49.40;;;;;;5062863;28;19934;-69
2023/06/12 02:08:41;;;;;;;;;;;22.90;49.40;;;;;;5065233;28;19929;-69
2023/06/12 02:11:08;;;;;;;;;;;22.90;49.50;;;;;;5062734;28;19929;-69
2023/06/12 02:13:34;;;;;;;;;;;22.90;49.60;;;;;;5061617;28;19928;-70
2023/06/12 02:16:03;;;;;;;;;;;22.80;49.70;;;;;;5066786;28;19936;-70
2023/06/12 02:18:30;;;;;;;;;;;22.80;49.80;;;;;;5061487;28;20008;-70
2023/06/12 02:20:56;;;;;;;;;;;22.70;50.10;;;;;;5056291;28;19925;-69
2023/06/12 02:23:23;;;;;;;;;;;22.70;50.00;;;;;;5052886;28;19986;-69
2023/06/12 02:25:51;;;;;;;;;;;22.70;49.90;;;;;;5050902;28;19970;-69
2023/06/12 02:28:17;;;;;;;;;;;22.60;50.60;;;;;;5047359;28;19925;-70
2023/06/12 02:30:44;;;;;;;;;;;22.60;50.10;;;;;;5054881;28;19928;-69
2023/06/12 02:33:13;;;;;;;;;;;22.60;50.30;;;;;;5049514;28;19925;-70
2023/06/12 02:35:39;;;;;;;;;;;22.50;50.40;;;;;;5054853;28;19991;-69
2023/06/12 02:38:06;;;;;;;;;;;22.50;50.50;;;;;;5046211;28;19928;-70
2023/06/12 02:40:32;;;;;;;;;;;22.50;50.40;;;;;;5051275;28;19932;-69
2023/06/12 02:43:00;;;;;;;;;;;22.50;50.60;;;;;;5050159;28;19936;-69
2023/06/12 02:45:27;;;;;;;;;;;22.40;50.50;;;;;;5051731;28;19928;-70
2023/06/12 02:47:54;;;;;;;;;;;22.40;50.60;;;;;;5048481;28;19932;-68
2023/06/12 02:50:20;;;;;;;;;;;22.40;50.90;;;;;;5054911;28;19929;-70
2023/06/12 02:52:47;;;;;;;;;;;22.30;50.90;;;;;;5058574;28;20000;-69
2023/06/12 02:55:13;;;;;;;;;;;22.30;50.90;;;;;;5049545;28;19932;-69
2023/06/12 02:57:40;;;;;;;;;;;22.30;50.90;;;;;;5056338;28;20346;-70
2023/06/12 03:00:08;;;;;;;;;;;22.20;50.90;;;;;;5055436;28;19928;-69
2023/06/12 03:02:36;;;;;;;;;;;22.20;51.10;;;;;;5046968;28;19929;-69
2023/06/12 03:05:04;;;;;;;;;;;22.20;51.10;;;;;;5045504;28;19932;-70
2023/06/12 03:07:30;;;;;;;;;;;22.10;51.10;;;;;;5060362;28;20317;-69
2023/06/12 03:09:57;;;;;;;;;;;22.10;51.20;;;;;;5047894;28;19935;-69
2023/06/12 03:12:23;;;;;;;;;;;22.10;51.30;;;;;;5056639;28;20373;-69
2023/06/12 03:14:50;;;;;;;;;;;22.10;51.50;;;;;;5048812;28;19978;-69
2023/06/12 03:17:19;;;;;;;;;;;22.00;51.40;;;;;;5055548;28;19932;-69
2023/06/12 03:19:45;;;;;;;;;;;22.00;51.60;;;;;;5050806;28;19936;-69
2023/06/12 03:22:12;;;;;;;;;;;22.00;51.60;;;;;;5050401;28;19932;-70
2023/06/12 03:24:38;;;;;;;;;;;21.90;51.60;;;;;;5048099;28;19982;-69
2023/06/12 03:27:05;;;;;;;;;;;21.90;51.70;;;;;;5047986;28;20013;-68
2023/06/12 03:29:32;;;;;;;;;;;21.90;51.70;;;;;;5064152;28;19939;-68
2023/06/12 03:31:58;;;;;;;;;;;21.80;51.80;;;;;;5048541;28;19935;-69
2023/06/12 03:34:26;;;;;;;;;;;21.80;51.90;;;;;;5051154;28;19929;-69
2023/06/12 03:36:53;;;;;;;;;;;21.80;51.90;;;;;;5050221;28;19936;-69
2023/06/12 03:39:20;;;;;;;;;;;21.80;51.90;;;;;;5046284;28;20352;-70
2023/06/12 03:41:54;;;;;;;;;;;21.70;51.90;;;;;;5053343;28;19929;-69
2023/06/12 03:44:20;;;;;;;;;;;21.70;52.00;;;;;;5065284;28;19929;-70
2023/06/12 03:46:47;;;;;;;;;;;21.70;52.10;;;;;;5065047;28;19932;-69
2023/06/12 03:49:13;;;;;;;;;;;21.70;52.10;;;;;;5067699;28;19974;-69
2023/06/12 03:51:41;;;;;;;;;;;21.60;52.10;;;;;;5055082;28;19937;-69
2023/06/12 03:54:07;;;;;;;;;;;21.60;52.20;;;;;;5055555;28;19928;-69
2023/06/12 03:56:34;;;;;;;;;;;21.60;52.30;;;;;;5054284;28;19937;-69
2023/06/12 03:59:01;;;;;;;;;;;21.50;52.40;;;;;;5058706;28;19982;-69
2023/06/12 04:01:27;;;;;;;;;;;21.50;52.40;;;;;;5048345;28;19932;-69
2023/06/12 04:03:54;;;;;;;;;;;21.50;52.50;;;;;;5056599;28;19962;-67
2023/06/12 04:06:22;;;;;;;;;;;21.50;52.50;;;;;;5055192;28;19959;-69
2023/06/12 04:08:51;;;;;;;;;;;21.40;52.50;;;;;;5049531;28;20215;-68
2023/06/12 04:11:19;;;;;;;;;;;21.40;52.60;;;;;;5061215;28;19932;-69
2023/06/12 04:13:45;;;;;;;;;;;21.40;52.70;;;;;;5053890;28;19932;-70
2023/06/12 04:16:12;;;;;;;;;;;21.40;52.80;;;;;;5046637;28;19933;-69
2023/06/12 04:18:38;;;;;;;;;;;21.40;52.90;;;;;;5058407;28;19928;-68
2023/06/12 04:21:06;;;;;;;;;;;21.40;52.90;;;;;;5050950;28;19928;-69
2023/06/12 04:23:33;;;;;;;;;;;21.30;52.90;;;;;;5053539;28;19932;-68
2023/06/12 04:26:04;;;;;;;;;;;21.30;53.00;;;;;;5059057;28;19932;-69
2023/06/12 04:28:31;;;;;;;;;;;21.30;53.10;;;;;;5051618;28;19932;-68
2023/06/12 04:30:57;;;;;;;;;;;21.30;53.20;;;;;;5054174;28;19932;-67
2023/06/12 04:33:24;;;;;;;;;;;21.20;53.20;;;;;;5053631;28;19933;-69
2023/06/12 04:35:52;;;;;;;;;;;21.20;53.30;;;;;;5050949;28;19935;-68
2023/06/12 04:38:19;;;;;;;;;;;21.20;53.30;;;;;;5051548;28;20019;-69
2023/06/12 04:40:45;;;;;;;;;;;21.10;53.40;;;;;;5055771;28;19928;-69
2023/06/12 04:43:13;;;;;;;;;;;21.10;53.40;;;;;;5054327;28;19932;-70
2023/06/12 04:45:44;;;;;;;;;;;21.10;53.60;;;;;;5052561;28;19960;-69
2023/06/12 04:48:11;;;;;;;;;;;21.10;53.70;;;;;;5052050;28;19940;-69
2023/06/12 04:50:37;;;;;;;;;;;21.00;53.70;;;;;;5059073;28;19935;-69
2023/06/12 04:53:04;;;;;;;;;;;21.10;53.90;;;;;;5051939;28;20341;-70
2023/06/12 04:55:31;;;;;;;;;;;21.10;54.50;;;;;;5062796;28;20230;-72
2023/06/12 04:57:58;;;;;;;;;;;20.60;57.20;;;;;;5072021;28;19928;-72
2023/06/12 05:00:28;;;;;;;;;;;20.40;57.50;;;;;;5060099;28;19928;-70
2023/06/12 05:02:55;;;;;;;;;;;20.40;57.50;;;;;;5074456;28;20029;-71
2023/06/12 05:05:22;;;;;;;;;;;20.40;57.60;;;;;;5057039;28;19939;-72
2023/06/12 05:07:48;;;;;;;;;;;20.40;57.60;;;;;;5053560;28;19940;-70
2023/06/12 05:10:15;;;;;;;;;;;20.40;57.40;;;;;;5052634;28;19929;-71
2023/06/12 05:12:41;;;;;;;;;;;20.40;57.20;;;;;;5068402;28;19972;-72
2023/06/12 05:15:09;;;;;;;;;;;20.50;57.10;;;;;;5057803;28;20311;-72
2023/06/12 05:17:37;;;;;;;;;;;20.50;57.00;;;;;;5066851;28;19928;-70
2023/06/12 05:20:08;;;;;;;;;;;20.50;56.80;;;;;;5065222;28;19954;-72
2023/06/12 05:22:34;;;;;;;;;;;20.50;56.70;;;;;;5059631;28;19929;-71
2023/06/12 05:25:03;;;;;;;;;;;20.60;56.60;;;;;;5059921;28;20436;-71
2023/06/12 05:27:29;;;;;;;;;;;20.60;56.60;;;;;;5068623;28;19929;-72
2023/06/12 05:29:56;;;;;;;;;;;20.60;56.50;;;;;;5060227;28;19939;-71
2023/06/12 05:32:22;;;;;;;;;;;20.60;56.30;;;;;;5062682;28;19993;-72
2023/06/12 05:34:51;;;;;;;;;;;20.60;56.30;;;;;;5066129;28;19959;-72
2023/06/12 05:37:17;;;;;;;;;;;20.60;56.20;;;;;;5068213;28;19929;-72
2023/06/12 05:39:44;;;;;;;;;;;20.70;56.10;;;;;;5068273;28;19932;-72
2023/06/12 05:42:10;;;;;;;;;;;20.70;56.00;;;;;;5059782;28;19929;-72
2023/06/12 05:44:37;;;;;;;;;;;20.70;55.90;;;;;;5059888;28;20014;-72
2023/06/12 05:47:03;;;;;;;;;;;20.70;55.90;;;;;;5056009;28;19959;-72
2023/06/12 05:49:30;;;;;;;;;;;20.70;55.90;;;;;;5062996;28;20723;-72
2023/06/12 05:51:58;;;;;;;;;;;20.80;55.80;;;;;;5061846;28;20103;-72
2023/06/12 05:54:24;;;;;;;;;;;20.70;55.80;;;;;;5063222;28;20421;-72
2023/06/12 05:56:51;;;;;;;;;;;20.80;55.70;;;;;;5063755;28;19935;-72
2023/06/12 05:59:18;;;;;;;;;;;20.80;55.70;;;;;;5062526;28;19929;-72
2023/06/12 06:01:44;;;;;;;;;;;20.80;55.60;;;;;;5059404;28;19936;-72
2023/06/12 06:04:11;;;;;;;;;;;20.80;55.60;;;;;;5064513;28;19955;-72
2023/06/12 06:06:38;;;;;;;;;;;20.80;55.70;;;;;;5060473;28;20039;-72
2023/06/12 06:09:06;;;;;;;;;;;20.80;55.60;;;;;;5055032;28;19937;-72
2023/06/12 06:11:32;;;;;;;;;;;20.80;55.60;;;;;;5068815;28;19978;-72
2023/06/12 06:13:59;;;;;;;;;;;20.80;55.60;;;;;;5060877;28;19935;-71
2023/06/12 06:16:26;;;;;;;;;;;20.80;55.70;;;;;;5059986;28;20005;-72
2023/06/12 06:18:53;;;;;;;;;;;20.80;55.60;;;;;;5066160;28;19972;-72
2023/06/12 06:21:20;;;;;;;;;;;20.90;55.60;;;;;;5063985;28;19944;-72
2023/06/12 06:23:46;;;;;;;;;;;20.90;55.70;;;;;;5053043;28;20306;-72
2023/06/12 06:26:14;;;;;;;;;;;20.90;55.60;;;;;;5061020;28;19932;-72
2023/06/12 06:28:41;;;;;;;;;;;20.90;55.60;;;;;;5063704;28;19978;-72
2023/06/12 06:31:07;;;;;;;;;;;21.00;55.70;;;;;;5056923;28;19951;-72
2023/06/12 06:33:34;;;;;;;;;;;21.00;55.70;;;;;;5061662;28;20316;-72
2023/06/12 06:36:00;;;;;;;;;;;21.00;55.80;;;;;;5067158;28;19932;-71
2023/06/12 06:38:27;;;;;;;;;;;21.00;55.80;;;;;;5055452;28;19974;-71
2023/06/12 06:40:53;;;;;;;;;;;21.00;55.80;;;;;;5057693;28;19935;-71
2023/06/12 06:43:22;;;;;;;;;;;21.10;55.80;;;;;;5060574;28;19982;-72
2023/06/12 06:45:49;;;;;;;;;;;21.10;55.70;;;;;;5067578;28;20416;-72
2023/06/12 06:48:15;;;;;;;;;;;21.10;55.80;;;;;;5063575;28;19929;-72
2023/06/12 06:50:42;;;;;;;;;;;21.10;55.80;;;;;;5063548;28;19986;-72
2023/06/12 06:53:09;;;;;;;;;;;21.10;55.90;;;;;;5062888;28;19935;-72
2023/06/12 06:55:36;;;;;;;;;;;21.10;55.90;;;;;;5060583;28;19929;-70
2023/06/12 06:58:02;;;;;;;;;;;21.10;55.90;;;;;;5060973;28;19932;-72
2023/06/12 07:00:31;;;;;;;;;;;21.20;56.00;;;;;;5054132;28;19928;-72
2023/06/12 07:02:57;;;;;;;;;;;21.20;56.20;;;;;;5068191;28;19998;-72
2023/06/12 07:05:24;;;;;;;;;;;21.20;56.20;;;;;;5058857;28;19928;-72
2023/06/12 07:07:51;;;;;;;;;;;21.20;56.10;;;;;;5062793;28;20405;-70
2023/06/12 07:10:17;;;;;;;;;;;21.30;56.30;;;;;;5059348;28;19929;-72
2023/06/12 07:12:44;;;;;;;;;;;21.30;56.30;;;;;;5060406;28;19940;-72
2023/06/12 07:15:10;;;;;;;;;;;21.30;56.50;;;;;;5060333;28;19932;-72
2023/06/12 07:17:38;;;;;;;;;;;21.30;56.30;;;;;;5059878;28;19928;-72
2023/06/12 07:20:06;;;;;;;;;;;21.30;56.30;;;;;;5062481;28;19948;-72
2023/06/12 07:22:33;;;;;;;;;;;21.40;56.20;;;;;;5063863;28;19968;-72
2023/06/12 07:25:00;;;;;;;;;;;21.40;56.20;;;;;;5059946;28;19963;-72
2023/06/12 07:27:26;;;;;;;;;;;21.40;56.30;;;;;;5073399;28;19935;-72
2023/06/12 07:29:55;;;;;;;;;;;21.40;56.20;;;;;;5070314;28;20824;-72
2023/06/12 07:32:21;;;;;;;;;;;21.50;56.10;;;;;;5066040;28;19929;-73
2023/06/12 07:34:50;;;;;;;;;;;21.50;56.20;;;;;;5065869;28;19981;-72
2023/06/12 07:37:16;;;;;;;;;;;21.60;56.50;;;;;;5060820;28;20398;-72
2023/06/12 07:39:43;;;;;;;;;;;21.60;56.40;;;;;;5070344;28;19958;-71
2023/06/12 07:42:09;;;;;;;;;;;21.50;56.30;;;;;;5070342;28;19939;-72
2023/06/12 07:44:37;;;;;;;;;;;21.60;56.40;;;;;;5064489;28;19935;-70
2023/06/12 07:47:04;;;;;;;;;;;21.60;56.40;;;;;;5069350;28;19928;-72
2023/06/12 07:49:30;;;;;;;;;;;21.60;56.50;;;;;;5070387;28;19935;-72
2023/06/12 07:51:58;;;;;;;;;;;21.60;56.50;;;;;;5063338;28;19932;-70
2023/06/12 07:54:25;;;;;;;;;;;21.70;56.70;;;;;;5065228;28;19928;-72
2023/06/12 07:56:51;;;;;;;;;;;21.70;56.70;;;;;;5072033;28;19974;-72
2023/06/12 07:59:18;;;;;;;;;;;21.80;56.70;;;;;;5066415;28;20006;-72
2023/06/12 08:01:45;;;;;;;;;;;21.80;56.60;;;;;;5073519;28;19977;-73
2023/06/12 08:04:11;;;;;;;;;;;21.80;56.70;;;;;;5069129;28;20814;-73
2023/06/12 08:06:39;;;;;;;;;;;21.90;56.60;;;;;;5071637;28;20372;-73
2023/06/12 08:09:08;;;;;;;;;;;21.90;56.60;;;;;;5053367;28;19932;-73
2023/06/12 08:11:35;;;;;;;;;;;21.90;56.80;;;;;;5058761;28;19940;-73
2023/06/12 08:14:02;;;;;;;;;;;22.00;56.60;;;;;;5049061;28;19924;-70
2023/06/12 08:16:28;;;;;;;;;;;22.00;56.50;;;;;;5066323;28;19935;-72
2023/06/12 08:18:55;;;;;;;;;;;22.00;56.40;;;;;;5067571;28;19928;-71
2023/06/12 08:21:21;;;;;;;;;;;22.10;56.40;;;;;;5067160;28;19932;-71
2023/06/12 08:23:48;;;;;;;;;;;22.10;56.40;;;;;;5055395;28;19933;-72
2023/06/12 08:26:16;;;;;;;;;;;22.10;56.30;;;;;;5066584;28;20348;-72
2023/06/12 08:28:42;;;;;;;;;;;22.20;56.40;;;;;;5054132;28;19932;-72
2023/06/12 08:31:09;;;;;;;;;;;22.20;56.40;;;;;;5061234;28;19981;-73
2023/06/12 08:33:35;;;;;;;;;;;22.20;56.30;;;;;;5072134;28;19936;-72
2023/06/12 08:36:02;;;;;;;;;;;22.30;56.40;;;;;;5071874;28;19940;-72
2023/06/12 08:38:29;;;;;;;;;;;22.30;56.20;;;;;;5069595;28;19932;-73
2023/06/12 08:40:57;;;;;;;;;;;22.30;56.10;;;;;;5063529;28;19935;-72
2023/06/12 08:43:25;;;;;;;;;;;22.30;56.30;;;;;;5069820;28;19928;-70
2023/06/12 08:45:52;;;;;;;;;;;22.40;56.20;;;;;;5063023;28;19979;-72
2023/06/12 08:48:20;;;;;;;;;;;22.40;56.10;;;;;;5071270;28;19928;-73
2023/06/12 08:50:47;;;;;;;;;;;22.50;56.30;;;;;;5058297;28;19982;-72
2023/06/12 08:53:15;;;;;;;;;;;22.50;56.10;;;;;;5065964;28;19929;-72
2023/06/12 08:55:42;;;;;;;;;;;22.50;55.80;;;;;;5057804;28;20035;-72
2023/06/12 08:58:09;;;;;;;;;;;22.60;55.70;;;;;;5068722;28;20383;-72
2023/06/12 09:00:37;;;;;;;;;;;22.60;55.60;;;;;;5067889;28;19932;-72
2023/06/12 09:03:06;;;;;;;;;;;22.60;55.40;;;;;;5060055;28;21236;-72
2023/06/12 09:05:33;;;;;;;;;;;22.60;55.40;;;;;;5062438;28;20016;-73
2023/06/12 09:08:00;;;;;;;;;;;22.70;55.40;;;;;;5059961;28;20011;-71
2023/06/12 09:10:26;;;;;;;;;;;22.70;55.70;;;;;;5063436;28;19932;-74
2023/06/12 09:12:54;;;;;;;;;;;22.80;55.50;;;;;;5065628;28;19932;-73
2023/06/12 09:15:21;;;;;;;;;;;22.80;55.50;;;;;;5059645;28;19947;-72
2023/06/12 09:17:49;;;;;;;;;;;22.80;55.40;;;;;;5060675;28;19925;-73
2023/06/12 09:20:17;;;;;;;;;;;22.90;55.30;;;;;;5055545;28;20659;-72
2023/06/12 09:22:43;;;;;;;;;;;23.00;55.20;;;;;;5065224;28;19928;-73
2023/06/12 09:25:10;;;;;;;;;;;23.00;55.10;;;;;;5055908;28;19928;-72
2023/06/12 09:27:45;;;;;;;;;;;23.10;54.70;;;;;;5064817;28;20427;-72
2023/06/12 09:30:12;;;;;;;;;;;23.10;54.80;;;;;;5063753;28;19928;-71
2023/06/12 09:32:40;;;;;;;;;;;23.10;54.60;;;;;;5067104;28;20024;-71
2023/06/12 09:35:10;;;;;;;;;;;23.20;54.50;;;;;;5060578;28;19940;-72
2023/06/12 09:37:37;;;;;;;;;;;23.20;54.20;;;;;;5067523;28;19928;-72
2023/06/12 09:40:11;;;;;;;;;;;23.30;54.30;;;;;;5065257;28;19985;-72
2023/06/12 09:42:38;;;;;;;;;;;23.30;54.10;;;;;;5067235;28;20046;-73
2023/06/12 09:45:11;;;;;;;;;;;23.40;54.00;;;;;;5052049;28;19929;-72
2023/06/12 09:47:40;;;;;;;;;;;23.40;53.60;;;;;;5062636;28;19935;-72
2023/06/12 09:50:09;;;;;;;;;;;23.50;53.60;;;;;;5055018;28;20011;-73
2023/06/12 09:52:36;;;;;;;;;;;23.60;53.70;;;;;;5065426;28;19936;-73
2023/06/12 09:55:05;;;;;;;;;;;23.60;53.60;;;;;;5061308;28;19932;-71
2023/06/12 09:57:32;;;;;;;;;;;23.70;53.40;;;;;;5054832;28;19935;-72
2023/06/12 10:00:01;;;;;;;;;;;23.70;53.10;;;;;;5066026;28;20677;-72
2023/06/12 10:02:28;;;;;;;;;;;23.80;53.00;;;;;;5063896;28;19932;-72
2023/06/12 10:04:59;;;;;;;;;;;23.80;52.70;;;;;;5064432;28;19944;-72
2023/06/12 10:07:28;;;;;;;;;;;23.90;52.50;;;;;;5061620;28;19929;-72
2023/06/12 10:09:55;;;;;;;;;;;23.90;52.20;;;;;;5060609;28;19935;-72
2023/06/12 10:12:22;;;;;;;;;;;24.00;52.10;;;;;;5065905;28;20435;-73
2023/06/12 10:14:50;;;;;;;;;;;24.00;52.00;;;;;;5054669;28;19978;-73
2023/06/12 10:17:17;;;;;;;;;;;24.00;52.00;;;;;;5061540;28;19933;-73
2023/06/12 10:19:47;;;;;;;;;;;24.10;51.30;;;;;;5057447;28;19928;-72
2023/06/12 10:22:14;;;;;;;;;;;24.20;51.10;;;;;;5056590;28;20306;-73
2023/06/12 10:24:41;;;;;;;;;;;24.20;50.90;;;;;;5054446;28;19929;-72
2023/06/12 10:27:09;;;;;;;;;;;24.30;50.60;;;;;;5061311;28;20456;-73
2023/06/12 10:29:37;;;;;;;;;;;24.30;50.40;;;;;;5067042;28;19932;-72
2023/06/12 10:32:04;;;;;;;;;;;24.50;50.30;;;;;;5065529;28;19933;-72
2023/06/12 10:34:33;;;;;;;;;;;24.50;50.10;;;;;;5067112;28;20009;-73
2023/06/12 10:37:19;;;;;;;;;;;24.60;50.10;;;;;;5060431;28;19939;-72
2023/06/12 10:39:48;;;;;;;;;;;24.70;49.70;;;;;;5058589;28;20006;-72
2023/06/12 10:42:14;;;;;;;;;;;24.70;49.40;;;;;;5065814;28;19929;-73
2023/06/12 10:44:42;;;;;;;;;;;24.80;49.40;;;;;;5065165;28;20402;-72
2023/06/12 10:47:18;;;;;;;;;;;24.90;49.50;;;;;;5058751;28;19933;-72
2023/06/12 10:50:01;;;;;;;;;;;24.90;49.10;;;;;;5067957;28;19928;-71
2023/06/12 10:52:27;;;;;;;;;;;25.00;48.90;;;;;;5057839;28;20707;-73
2023/06/12 10:55:13;;;;;;;;;;;25.10;48.80;;;;;;5066575;28;20073;-72
2023/06/12 10:57:47;;;;;;;;;;;25.10;48.70;;;;;;5066623;28;20011;-71
2023/06/12 11:00:16;;;;;;;;;;;25.20;48.50;;;;;;5049351;28;19936;-73
2023/06/12 11:02:43;;;;;;;;;;;25.30;48.40;;;;;;5059363;28;20718;-72
2023/06/12 11:05:09;;;;;;;;;;;25.40;48.50;;;;;;5068148;28;19928;-73
2023/06/12 11:07:37;;;;;;;;;;;25.40;48.30;;;;;;5067244;28;19928;-72
2023/06/12 11:10:08;;;;;;;;;;;25.50;48.00;;;;;;5057787;28;20033;-73
2023/06/12 11:12:35;;;;;;;;;;;25.50;47.90;;;;;;5064580;28;19928;-73
2023/06/12 11:15:03;;;;;;;;;;;25.60;47.80;;;;;;5057308;28;20021;-73
2023/06/12 11:17:29;;;;;;;;;;;25.60;47.40;;;;;;5058873;28;19932;-71
2023/06/12 11:19:58;;;;;;;;;;;25.70;47.50;;;;;;5063929;28;20006;-73
2023/06/12 11:22:25;;;;;;;;;;;25.80;47.20;;;;;;5063903;28;19936;-72
2023/06/12 11:24:58;;;;;;;;;;;25.80;47.00;;;;;;5059372;28;19974;-73
2023/06/12 11:27:25;;;;;;;;;;;25.90;46.70;;;;;;5066787;28;19936;-73
2023/06/12 11:29:51;;;;;;;;;;;25.90;46.50;;;;;;5071232;28;19974;-73
2023/06/12 11:32:20;;;;;;;;;;;26.00;46.30;;;;;;5064370;28;20519;-73
2023/06/12 11:34:46;;;;;;;;;;;26.10;46.30;;;;;;5058414;28;20159;-73
2023/06/12 11:37:14;;;;;;;;;;;26.20;46.70;;;;;;5065002;28;20096;-73
2023/06/12 11:39:41;;;;;;;;;;;26.20;46.80;;;;;;5065791;28;19936;-71
2023/06/12 11:42:07;;;;;;;;;;;26.30;46.00;;;;;;5066832;28;19935;-73
2023/06/12 11:44:34;;;;;;;;;;;26.30;46.00;;;;;;5063550;28;19928;-73
2023/06/12 11:47:01;;;;;;;;;;;26.40;45.80;;;;;;5063652;28;19936;-72
2023/06/12 11:49:31;;;;;;;;;;;26.40;45.50;;;;;;5063664;28;19932;-73
2023/06/12 11:51:57;;;;;;;;;;;26.50;45.50;;;;;;5057189;28;19943;-73
2023/06/12 11:54:24;;;;;;;;;;;26.60;45.40;;;;;;5066653;28;19927;-73
2023/06/12 11:56:51;;;;;;;;;;;26.60;45.00;;;;;;5064382;28;19929;-73
2023/06/12 11:59:18;;;;;;;;;;;26.60;44.90;;;;;;5053313;28;19964;-72
2023/06/12 12:01:47;;;;;;;;;;;26.70;45.10;;;;;;5072863;28;19928;-73
2023/06/12 12:04:17;;;;;;;;;;;26.70;45.50;;;;;;5070152;28;19928;-73
2023/06/12 12:06:48;;;;;;;;;;;26.80;45.00;;;;;;5071143;28;19935;-72
2023/06/12 12:09:15;;;;;;;;;;;26.80;45.10;;;;;;5064372;28;19942;-72
2023/06/12 12:11:42;;;;;;;;;;;26.90;45.10;;;;;;5066928;28;19932;-72
2023/06/12 12:14:08;;;;;;;;;;;26.90;44.80;;;;;;5063114;28;19934;-73
2023/06/12 12:16:37;;;;;;;;;;;26.90;44.50;;;;;;5060469;28;19929;-72
2023/06/12 12:19:15;;;;;;;;;;;27.00;44.30;;;;;;5063909;28;19934;-73
2023/06/12 12:21:43;;;;;;;;;;;27.00;44.20;;;;;;5067206;28;19936;-72
2023/06/12 12:24:11;;;;;;;;;;;27.10;43.80;;;;;;5056189;28;19935;-73
2023/06/12 12:26:41;;;;;;;;;;;27.10;43.80;;;;;;5076100;28;19930;-73
2023/06/12 12:29:07;;;;;;;;;;;27.20;43.90;;;;;;5066663;28;20076;-73
2023/06/12 12:31:35;;;;;;;;;;;27.20;44.10;;;;;;5059959;28;19929;-74
2023/06/12 12:34:02;;;;;;;;;;;27.30;43.80;;;;;;5065087;28;19928;-71
2023/06/12 12:36:28;;;;;;;;;;;27.30;43.90;;;;;;5066065;28;19932;-73
2023/06/12 12:38:55;;;;;;;;;;;27.30;44.40;;;;;;5059161;28;19928;-73
2023/06/12 12:41:23;;;;;;;;;;;27.40;43.80;;;;;;5055867;28;20394;-73
2023/06/12 12:43:49;;;;;;;;;;;27.40;43.50;;;;;;5057840;28;19928;-73
2023/06/12 12:46:16;;;;;;;;;;;27.50;43.60;;;;;;5057635;28;19928;-73
2023/06/12 12:48:43;;;;;;;;;;;27.60;43.30;;;;;;5064830;28;19924;-72
2023/06/12 12:51:09;;;;;;;;;;;27.60;42.70;;;;;;5061729;28;20739;-74
2023/06/12 12:53:36;;;;;;;;;;;27.70;42.30;;;;;;5067423;28;20041;-73
2023/06/12 12:56:03;;;;;;;;;;;27.70;42.30;;;;;;5070891;28;20551;-73
2023/06/12 12:58:31;;;;;;;;;;;27.80;42.30;;;;;;5062891;28;20491;-73
2023/06/12 13:00:59;;;;;;;;;;;27.80;42.20;;;;;;5058664;28;20436;-74
2023/06/12 13:03:26;;;;;;;;;;;27.90;42.20;;;;;;5073244;28;19924;-70
2023/06/12 13:05:53;;;;;;;;;;;27.90;42.30;;;;;;5070718;28;19958;-73
2023/06/12 13:08:19;;;;;;;;;;;27.90;42.20;;;;;;5051754;28;19937;-73
2023/06/12 13:10:46;;;;;;;;;;;28.00;42.10;;;;;;5060579;28;19929;-73
2023/06/12 13:13:13;;;;;;;;;;;28.00;42.20;;;;;;5065246;28;19998;-72
2023/06/12 13:15:42;;;;;;;;;;;28.10;41.90;;;;;;5067528;28;20325;-74
2023/06/12 13:18:08;;;;;;;;;;;28.10;42.00;;;;;;5061804;28;20402;-73
2023/06/12 13:20:35;;;;;;;;;;;28.20;41.70;;;;;;5055854;28;19929;-74
2023/06/12 13:23:01;;;;;;;;;;;28.20;41.90;;;;;;5065457;28;19928;-73
2023/06/12 13:25:28;;;;;;;;;;;28.20;41.80;;;;;;5060645;28;19933;-73
2023/06/12 13:27:54;;;;;;;;;;;28.30;41.90;;;;;;5060345;28;19928;-73
2023/06/12 13:30:21;;;;;;;;;;;28.30;41.80;;;;;;5061083;28;19936;-73
2023/06/12 13:32:49;;;;;;;;;;;28.40;41.70;;;;;;5058249;28;19940;-73
2023/06/12 13:35:15;;;;;;;;;;;28.40;41.20;;;;;;5071319;28;19932;-73
2023/06/12 13:37:51;;;;;;;;;;;28.50;41.60;;;;;;5106624;27;20324;-73
2023/06/12 13:40:17;;;;;;;;;;;28.50;41.20;;;;;;5080952;28;19932;-73
2023/06/12 13:42:46;;;;;;;;;;;28.60;41.10;;;;;;5072670;28;20368;-72
2023/06/12 13:45:13;;;;;;;;;;;28.60;40.70;;;;;;5060224;28;19938;-73
2023/06/12 13:47:39;;;;;;;;;;;28.60;41.00;;;;;;5049317;28;19998;-72
2023/06/12 13:50:07;;;;;;;;;;;28.70;41.00;;;;;;5038573;28;19928;-72
2023/06/12 13:52:34;;;;;;;;;;;28.80;40.70;;;;;;5052048;28;19959;-73
2023/06/12 13:55:01;;;;;;;;;;;28.80;40.40;;;;;;5054037;28;19928;-72
2023/06/12 13:57:28;;;;;;;;;;;28.90;40.50;;;;;;5047794;28;19928;-73
2023/06/12 13:59:55;;;;;;;;;;;28.90;40.30;;;;;;5042499;28;19929;-73
2023/06/12 14:02:22;;;;;;;;;;;29.00;40.40;;;;;;5023741;28;20704;-77
2023/06/12 14:04:48;;;;;;;;;;;29.00;40.80;;;;;;5024369;28;20534;-77
2023/06/12 14:07:15;;;;;;;;;;;29.10;41.10;;;;;;5033713;28;19956;-77
2023/06/12 14:09:41;;;;;;;;;;;29.20;40.50;;;;;;5028658;28;19960;-78
2023/06/12 14:12:09;;;;;;;;;;;29.30;39.90;;;;;;5024688;28;19984;-78
2023/06/12 14:14:36;;;;;;;;;;;29.30;40.10;;;;;;5024191;28;19933;-77
2023/06/12 14:17:02;;;;;;;;;;;29.30;39.80;;;;;;5024392;28;20472;-78